sensor_id;sensor_type;location;lat;lon;timestamp;pressure;altitude;pressure_sealevel;temperature
65600;BMP280;52272;-29.642;-50.764;2022-12-29T00:00:34;100271.09;;;21.92
65600;BMP280;52272;-29.642;-50.764;2022-12-29T00:03:04;100267.84;;;21.93
65600;BMP280;52272;-29.642;-50.764;2022-12-29T00:05:53;100269.22;;;21.87
65600;BMP280;52272;-29.642;-50.764;2022-12-29T00:08:30;100277.75;;;21.78
65600;BMP280;52272;-29.642;-50.764;2022-12-29T00:11:36;100293.41;;;21.72
65600;BMP280;52272;-29.642;-50.764;2022-12-29T00:14:24;100289.41;;;21.60
65600;BMP280;52272;-29.642;-50.764;2022-12-29T00:17:17;100295.00;;;21.62
65600;BMP280;52272;-29.642;-50.764;2022-12-29T00:19:48;100308.31;;;21.78
65600;BMP280;52272;-29.642;-50.764;2022-12-29T00:22:37;100318.72;;;21.74
65600;BMP280;52272;-29.642;-50.764;2022-12-29T00:25:35;100324.66;;;21.60
65600;BMP280;52272;-29.642;-50.764;2022-12-29T00:28:33;100332.84;;;21.54
65600;BMP280;52272;-29.642;-50.764;2022-12-29T00:31:33;100337.94;;;21.27
65600;BMP280;52272;-29.642;-50.764;2022-12-29T00:34:25;100345.28;;;21.63
65600;BMP280;52272;-29.642;-50.764;2022-12-29T00:37:25;100337.09;;;21.50
65600;BMP280;52272;-29.642;-50.764;2022-12-29T00:40:19;100350.63;;;21.00
65600;BMP280;52272;-29.642;-50.764;2022-12-29T00:43:11;100349.28;;;20.88
65600;BMP280;52272;-29.642;-50.764;2022-12-29T00:46:07;100352.03;;;20.64
65600;BMP280;52272;-29.642;-50.764;2022-12-29T00:48:51;100360.81;;;20.46
65600;BMP280;52272;-29.642;-50.764;2022-12-29T00:51:46;100355.88;;;20.26
65600;BMP280;52272;-29.642;-50.764;2022-12-29T00:54:22;100352.94;;;20.24
65600;BMP280;52272;-29.642;-50.764;2022-12-29T00:57:02;100371.47;;;20.15
65600;BMP280;52272;-29.642;-50.764;2022-12-29T00:59:39;100373.00;;;20.05
65600;BMP280;52272;-29.642;-50.764;2022-12-29T01:02:15;100364.22;;;19.99
65600;BMP280;52272;-29.642;-50.764;2022-12-29T01:04:47;100377.50;;;20.26
65600;BMP280;52272;-29.642;-50.764;2022-12-29T01:07:31;100388.47;;;20.34
65600;BMP280;52272;-29.642;-50.764;2022-12-29T01:10:04;100391.59;;;20.43
65600;BMP280;52272;-29.642;-50.764;2022-12-29T01:12:45;100401.41;;;20.22
65600;BMP280;52272;-29.642;-50.764;2022-12-29T01:15:17;100400.28;;;20.36
65600;BMP280;52272;-29.642;-50.764;2022-12-29T01:17:57;100410.50;;;20.49
65600;BMP280;52272;-29.642;-50.764;2022-12-29T01:20:36;100410.38;;;20.36
65600;BMP280;52272;-29.642;-50.764;2022-12-29T01:23:11;100414.28;;;20.40
65600;BMP280;52272;-29.642;-50.764;2022-12-29T01:25:45;100415.28;;;20.37
65600;BMP280;52272;-29.642;-50.764;2022-12-29T01:28:23;100416.75;;;20.38
65600;BMP280;52272;-29.642;-50.764;2022-12-29T01:31:00;100414.75;;;20.44
65600;BMP280;52272;-29.642;-50.764;2022-12-29T01:33:33;100403.91;;;20.44
65600;BMP280;52272;-29.642;-50.764;2022-12-29T01:36:14;100400.97;;;20.42
65600;BMP280;52272;-29.642;-50.764;2022-12-29T01:39:00;100397.88;;;20.33
65600;BMP280;52272;-29.642;-50.764;2022-12-29T01:41:30;100389.69;;;20.38
65600;BMP280;52272;-29.642;-50.764;2022-12-29T01:47:22;100394.47;;;20.27
65600;BMP280;52272;-29.642;-50.764;2022-12-29T01:49:57;100384.94;;;20.20
65600;BMP280;52272;-29.642;-50.764;2022-12-29T01:52:31;100383.81;;;20.34
65600;BMP280;52272;-29.642;-50.764;2022-12-29T01:55:03;100400.28;;;20.36
65600;BMP280;52272;-29.642;-50.764;2022-12-29T01:57:47;100386.53;;;20.34
65600;BMP280;52272;-29.642;-50.764;2022-12-29T02:00:22;100390.69;;;20.35
65600;BMP280;52272;-29.642;-50.764;2022-12-29T02:03:09;100388.69;;;20.41
65600;BMP280;52272;-29.642;-50.764;2022-12-29T02:08:50;100398.91;;;20.24
65600;BMP280;52272;-29.642;-50.764;2022-12-29T02:11:26;100402.06;;;20.28
65600;BMP280;52272;-29.642;-50.764;2022-12-29T02:13:58;100412.72;;;20.21
65600;BMP280;52272;-29.642;-50.764;2022-12-29T02:38:54;100400.47;;;19.80
65600;BMP280;52272;-29.642;-50.764;2022-12-29T02:44:59;100396.53;;;19.81
65600;BMP280;52272;-29.642;-50.764;2022-12-29T02:47:42;100403.97;;;19.75
65600;BMP280;52272;-29.642;-50.764;2022-12-29T02:50:43;100408.28;;;19.89
65600;BMP280;52272;-29.642;-50.764;2022-12-29T02:53:21;100403.44;;;19.82
65600;BMP280;52272;-29.642;-50.764;2022-12-29T02:56:17;100409.00;;;19.89
65600;BMP280;52272;-29.642;-50.764;2022-12-29T02:58:49;100393.44;;;19.71
65600;BMP280;52272;-29.642;-50.764;2022-12-29T03:11:05;100388.88;;;19.50
65600;BMP280;52272;-29.642;-50.764;2022-12-29T03:17:10;100391.16;;;19.40
65600;BMP280;52272;-29.642;-50.764;2022-12-29T03:19:48;100392.28;;;19.56
65600;BMP280;52272;-29.642;-50.764;2022-12-29T03:22:29;100387.63;;;19.51
65600;BMP280;52272;-29.642;-50.764;2022-12-29T03:25:22;100379.16;;;19.30
65600;BMP280;52272;-29.642;-50.764;2022-12-29T03:28:08;100365.38;;;19.39
65600;BMP280;52272;-29.642;-50.764;2022-12-29T03:30:53;100378.38;;;19.41
65600;BMP280;52272;-29.642;-50.764;2022-12-29T03:33:27;100370.09;;;19.28
65600;BMP280;52272;-29.642;-50.764;2022-12-29T03:36:04;100365.09;;;19.37
65600;BMP280;52272;-29.642;-50.764;2022-12-29T03:39:03;100376.72;;;19.32
65600;BMP280;52272;-29.642;-50.764;2022-12-29T03:41:40;100368.81;;;19.29
65600;BMP280;52272;-29.642;-50.764;2022-12-29T03:44:14;100363.16;;;19.38
65600;BMP280;52272;-29.642;-50.764;2022-12-29T03:46:47;100347.47;;;19.36
65600;BMP280;52272;-29.642;-50.764;2022-12-29T03:49:18;100353.59;;;19.37
65600;BMP280;52272;-29.642;-50.764;2022-12-29T03:51:53;100369.00;;;19.47
65600;BMP280;52272;-29.642;-50.764;2022-12-29T03:54:25;100366.53;;;19.49
65600;BMP280;52272;-29.642;-50.764;2022-12-29T03:57:07;100368.63;;;19.27
65600;BMP280;52272;-29.642;-50.764;2022-12-29T03:59:56;100378.66;;;19.32
65600;BMP280;52272;-29.642;-50.764;2022-12-29T04:02:38;100376.78;;;19.62
65600;BMP280;52272;-29.642;-50.764;2022-12-29T04:05:27;100377.00;;;19.64
65600;BMP280;52272;-29.642;-50.764;2022-12-29T04:07:57;100348.38;;;19.44
65600;BMP280;52272;-29.642;-50.764;2022-12-29T04:10:29;100382.06;;;19.38
65600;BMP280;52272;-29.642;-50.764;2022-12-29T04:13:09;100352.72;;;19.07
65600;BMP280;52272;-29.642;-50.764;2022-12-29T04:15:53;100363.72;;;19.25
65600;BMP280;52272;-29.642;-50.764;2022-12-29T04:18:26;100364.03;;;19.11
65600;BMP280;52272;-29.642;-50.764;2022-12-29T04:21:16;100361.56;;;19.13
65600;BMP280;52272;-29.642;-50.764;2022-12-29T04:23:51;100367.22;;;19.09
65600;BMP280;52272;-29.642;-50.764;2022-12-29T04:26:24;100356.69;;;19.06
65600;BMP280;52272;-29.642;-50.764;2022-12-29T04:29:27;100356.13;;;19.18
65600;BMP280;52272;-29.642;-50.764;2022-12-29T04:32:28;100352.72;;;19.07
65600;BMP280;52272;-29.642;-50.764;2022-12-29T04:35:01;100351.88;;;19.39
65600;BMP280;52272;-29.642;-50.764;2022-12-29T04:37:35;100353.66;;;19.66
65600;BMP280;52272;-29.642;-50.764;2022-12-29T04:40:08;100336.53;;;19.58
65600;BMP280;52272;-29.642;-50.764;2022-12-29T04:42:52;100341.75;;;19.80
65600;BMP280;52272;-29.642;-50.764;2022-12-29T04:45:31;100321.19;;;19.72
65600;BMP280;52272;-29.642;-50.764;2022-12-29T04:48:27;100323.09;;;19.77
65600;BMP280;52272;-29.642;-50.764;2022-12-29T04:51:17;100315.59;;;19.94
65600;BMP280;52272;-29.642;-50.764;2022-12-29T04:53:54;100321.22;;;19.96
65600;BMP280;52272;-29.642;-50.764;2022-12-29T04:56:25;100323.16;;;20.01
65600;BMP280;52272;-29.642;-50.764;2022-12-29T04:59:03;100322.63;;;19.73
65600;BMP280;52272;-29.642;-50.764;2022-12-29T05:01:35;100314.47;;;19.84
65600;BMP280;52272;-29.642;-50.764;2022-12-29T05:04:28;100303.78;;;19.97
65600;BMP280;52272;-29.642;-50.764;2022-12-29T05:07:06;100304.81;;;19.88
65600;BMP280;52272;-29.642;-50.764;2022-12-29T05:09:54;100305.56;;;19.89
65600;BMP280;52272;-29.642;-50.764;2022-12-29T05:12:25;100305.47;;;19.41
65600;BMP280;52272;-29.642;-50.764;2022-12-29T05:15:08;100297.38;;;19.35
65600;BMP280;52272;-29.642;-50.764;2022-12-29T05:17:44;100289.31;;;19.30
65600;BMP280;52272;-29.642;-50.764;2022-12-29T05:20:24;100285.63;;;19.27
65600;BMP280;52272;-29.642;-50.764;2022-12-29T05:22:57;100280.50;;;19.24
65600;BMP280;52272;-29.642;-50.764;2022-12-29T05:25:31;100273.75;;;19.41
65600;BMP280;52272;-29.642;-50.764;2022-12-29T05:28:18;100268.91;;;19.64
65600;BMP280;52272;-29.642;-50.764;2022-12-29T05:31:09;100262.78;;;19.93
65600;BMP280;52272;-29.642;-50.764;2022-12-29T05:33:44;100261.94;;;20.03
65600;BMP280;52272;-29.642;-50.764;2022-12-29T05:36:26;100263.78;;;20.13
65600;BMP280;52272;-29.642;-50.764;2022-12-29T05:39:07;100249.16;;;20.04
65600;BMP280;52272;-29.642;-50.764;2022-12-29T05:41:50;100260.69;;;20.04
65600;BMP280;52272;-29.642;-50.764;2022-12-29T05:44:45;100256.56;;;19.98
65600;BMP280;52272;-29.642;-50.764;2022-12-29T05:47:45;100249.50;;;19.65
65600;BMP280;52272;-29.642;-50.764;2022-12-29T05:50:29;100246.94;;;19.49
65600;BMP280;52272;-29.642;-50.764;2022-12-29T05:53:25;100247.94;;;19.46
65600;BMP280;52272;-29.642;-50.764;2022-12-29T05:55:58;100236.91;;;19.73
65600;BMP280;52272;-29.642;-50.764;2022-12-29T05:58:40;100237.13;;;19.46
65600;BMP280;52272;-29.642;-50.764;2022-12-29T06:01:11;100231.25;;;19.42
65600;BMP280;52272;-29.642;-50.764;2022-12-29T06:03:45;100230.34;;;19.34
65600;BMP280;52272;-29.642;-50.764;2022-12-29T06:06:27;100232.25;;;19.68
65600;BMP280;52272;-29.642;-50.764;2022-12-29T06:09:03;100235.75;;;19.63
65600;BMP280;52272;-29.642;-50.764;2022-12-29T06:11:42;100239.38;;;19.71
65600;BMP280;52272;-29.642;-50.764;2022-12-29T06:14:36;100232.91;;;19.80
65600;BMP280;52272;-29.642;-50.764;2022-12-29T06:17:09;100234.81;;;19.85
65600;BMP280;52272;-29.642;-50.764;2022-12-29T06:19:52;100225.50;;;19.86
65600;BMP280;52272;-29.642;-50.764;2022-12-29T06:22:25;100220.81;;;19.86
65600;BMP280;52272;-29.642;-50.764;2022-12-29T06:25:04;100213.19;;;19.85
65600;BMP280;52272;-29.642;-50.764;2022-12-29T06:27:41;100211.75;;;19.84
65600;BMP280;52272;-29.642;-50.764;2022-12-29T06:30:12;100209.94;;;19.68
65600;BMP280;52272;-29.642;-50.764;2022-12-29T06:32:48;100198.66;;;19.64
65600;BMP280;52272;-29.642;-50.764;2022-12-29T06:35:22;100210.50;;;19.61
65600;BMP280;52272;-29.642;-50.764;2022-12-29T06:37:54;100217.44;;;19.51
65600;BMP280;52272;-29.642;-50.764;2022-12-29T06:40:30;100215.50;;;19.46
65600;BMP280;52272;-29.642;-50.764;2022-12-29T06:43:06;100220.91;;;19.46
65600;BMP280;52272;-29.642;-50.764;2022-12-29T06:45:58;100218.06;;;19.33
65600;BMP280;52272;-29.642;-50.764;2022-12-29T06:48:31;100220.94;;;19.11
65600;BMP280;52272;-29.642;-50.764;2022-12-29T06:51:04;100229.75;;;19.11
65600;BMP280;52272;-29.642;-50.764;2022-12-29T06:53:46;100223.81;;;19.24
65600;BMP280;52272;-29.642;-50.764;2022-12-29T06:56:23;100223.81;;;19.24
65600;BMP280;52272;-29.642;-50.764;2022-12-29T06:58:59;100214.16;;;19.34
65600;BMP280;52272;-29.642;-50.764;2022-12-29T07:01:39;100216.34;;;19.35
65600;BMP280;52272;-29.642;-50.764;2022-12-29T07:04:13;100220.28;;;19.29
65600;BMP280;52272;-29.642;-50.764;2022-12-29T07:06:48;100225.44;;;18.97
65600;BMP280;52272;-29.642;-50.764;2022-12-29T07:09:24;100229.03;;;19.11
65600;BMP280;52272;-29.642;-50.764;2022-12-29T07:11:58;100232.09;;;18.85
65600;BMP280;52272;-29.642;-50.764;2022-12-29T07:14:34;100231.47;;;18.63
65600;BMP280;52272;-29.642;-50.764;2022-12-29T07:17:15;100231.69;;;18.70
65600;BMP280;52272;-29.642;-50.764;2022-12-29T07:19:51;100246.00;;;18.49
65600;BMP280;52272;-29.642;-50.764;2022-12-29T07:22:24;100241.78;;;18.53
65600;BMP280;52272;-29.642;-50.764;2022-12-29T07:24:57;100250.16;;;18.50
65600;BMP280;52272;-29.642;-50.764;2022-12-29T07:27:37;100236.72;;;18.39
65600;BMP280;52272;-29.642;-50.764;2022-12-29T07:30:21;100228.66;;;18.34
65600;BMP280;52272;-29.642;-50.764;2022-12-29T07:32:58;100239.34;;;18.61
65600;BMP280;52272;-29.642;-50.764;2022-12-29T07:35:33;100255.94;;;18.81
65600;BMP280;52272;-29.642;-50.764;2022-12-29T07:38:17;100243.41;;;18.84
65600;BMP280;52272;-29.642;-50.764;2022-12-29T07:40:55;100239.94;;;18.89
65600;BMP280;52272;-29.642;-50.764;2022-12-29T07:43:46;100225.78;;;18.77
65600;BMP280;52272;-29.642;-50.764;2022-12-29T07:46:59;100247.91;;;18.65
65600;BMP280;52272;-29.642;-50.764;2022-12-29T07:49:45;100249.28;;;18.88
65600;BMP280;52272;-29.642;-50.764;2022-12-29T07:52:23;100253.28;;;18.70
65600;BMP280;52272;-29.642;-50.764;2022-12-29T07:55:09;100252.09;;;18.60
65600;BMP280;52272;-29.642;-50.764;2022-12-29T07:57:45;100253.53;;;18.72
65600;BMP280;52272;-29.642;-50.764;2022-12-29T08:00:31;100267.94;;;18.86
65600;BMP280;52272;-29.642;-50.764;2022-12-29T08:03:09;100270.41;;;18.84
65600;BMP280;52272;-29.642;-50.764;2022-12-29T08:05:51;100269.94;;;18.80
65600;BMP280;52272;-29.642;-50.764;2022-12-29T08:08:34;100268.75;;;18.64
65600;BMP280;52272;-29.642;-50.764;2022-12-29T08:11:12;100267.53;;;18.71
65600;BMP280;52272;-29.642;-50.764;2022-12-29T08:13:54;100276.84;;;18.59
65600;BMP280;52272;-29.642;-50.764;2022-12-29T08:16:37;100279.28;;;18.68
65600;BMP280;52272;-29.642;-50.764;2022-12-29T08:19:24;100269.97;;;18.63
65600;BMP280;52272;-29.642;-50.764;2022-12-29T08:21:58;100278.50;;;18.78
65600;BMP280;52272;-29.642;-50.764;2022-12-29T08:24:31;100288.88;;;18.58
65600;BMP280;52272;-29.642;-50.764;2022-12-29T08:27:18;100286.63;;;18.73
65600;BMP280;52272;-29.642;-50.764;2022-12-29T08:29:48;100295.53;;;18.57
65600;BMP280;52272;-29.642;-50.764;2022-12-29T08:32:32;100286.16;;;18.58
65600;BMP280;52272;-29.642;-50.764;2022-12-29T08:35:12;100286.88;;;18.75
65600;BMP280;52272;-29.642;-50.764;2022-12-29T08:37:45;100295.19;;;18.77
65600;BMP280;52272;-29.642;-50.764;2022-12-29T08:40:16;100293.13;;;18.99
65600;BMP280;52272;-29.642;-50.764;2022-12-29T08:42:51;100295.06;;;19.10
65600;BMP280;52272;-29.642;-50.764;2022-12-29T08:45:26;100300.81;;;19.36
65600;BMP280;52272;-29.642;-50.764;2022-12-29T08:48:02;100302.91;;;19.54
65600;BMP280;52272;-29.642;-50.764;2022-12-29T08:50:38;100316.75;;;19.74
65600;BMP280;52272;-29.642;-50.764;2022-12-29T08:53:13;100309.63;;;20.01
65600;BMP280;52272;-29.642;-50.764;2022-12-29T08:55:54;100315.69;;;20.12
65600;BMP280;52272;-29.642;-50.764;2022-12-29T08:58:37;100318.84;;;20.16
65600;BMP280;52272;-29.642;-50.764;2022-12-29T09:01:08;100330.06;;;20.49
65600;BMP280;52272;-29.642;-50.764;2022-12-29T09:03:42;100332.16;;;20.80
65600;BMP280;52272;-29.642;-50.764;2022-12-29T09:06:32;100337.16;;;21.13
65600;BMP280;52272;-29.642;-50.764;2022-12-29T09:09:22;100348.19;;;21.52
65600;BMP280;52272;-29.642;-50.764;2022-12-29T09:12:04;100361.91;;;21.85
65600;BMP280;52272;-29.642;-50.764;2022-12-29T09:14:49;100357.72;;;22.16
65600;BMP280;52272;-29.642;-50.764;2022-12-29T09:17:26;100367.03;;;22.59
65600;BMP280;52272;-29.642;-50.764;2022-12-29T09:20:23;100391.66;;;22.87
65600;BMP280;52272;-29.642;-50.764;2022-12-29T09:22:55;100395.97;;;23.16
65600;BMP280;52272;-29.642;-50.764;2022-12-29T09:25:38;100403.91;;;23.47
65600;BMP280;52272;-29.642;-50.764;2022-12-29T09:28:08;100395.22;;;23.69
65600;BMP280;52272;-29.642;-50.764;2022-12-29T09:30:43;100410.53;;;24.00
65600;BMP280;52272;-29.642;-50.764;2022-12-29T09:33:22;100409.75;;;24.20
65600;BMP280;52272;-29.642;-50.764;2022-12-29T09:36:04;100419.56;;;24.43
65600;BMP280;52272;-29.642;-50.764;2022-12-29T09:38:37;100430.38;;;24.64
65600;BMP280;52272;-29.642;-50.764;2022-12-29T09:41:31;100430.97;;;24.70
65600;BMP280;52272;-29.642;-50.764;2022-12-29T09:47:14;100448.19;;;25.08
65600;BMP280;52272;-29.642;-50.764;2022-12-29T09:49:54;100453.00;;;25.37
65600;BMP280;52272;-29.642;-50.764;2022-12-29T09:52:39;100443.06;;;25.69
65600;BMP280;52272;-29.642;-50.764;2022-12-29T09:55:32;100458.50;;;26.12
65600;BMP280;52272;-29.642;-50.764;2022-12-29T09:58:14;100458.06;;;26.45
65600;BMP280;52272;-29.642;-50.764;2022-12-29T10:03:28;100472.06;;;26.49
65600;BMP280;52272;-29.642;-50.764;2022-12-29T10:09:40;100490.50;;;26.26
65600;BMP280;52272;-29.642;-50.764;2022-12-29T10:12:46;100502.91;;;26.20
65600;BMP280;52272;-29.642;-50.764;2022-12-29T10:18:23;100516.34;;;26.55
65600;BMP280;52272;-29.642;-50.764;2022-12-29T10:23:59;100531.34;;;27.32
65600;BMP280;52272;-29.642;-50.764;2022-12-29T10:26:41;100536.47;;;27.28
65600;BMP280;52272;-29.642;-50.764;2022-12-29T10:29:41;100536.97;;;26.95
65600;BMP280;52272;-29.642;-50.764;2022-12-29T10:35:16;100557.09;;;28.27
65600;BMP280;52272;-29.642;-50.764;2022-12-29T10:38:15;100546.59;;;27.99
65600;BMP280;52272;-29.642;-50.764;2022-12-29T10:41:13;100556.16;;;28.83
65600;BMP280;52272;-29.642;-50.764;2022-12-29T10:43:52;100562.16;;;29.15
65600;BMP280;52272;-29.642;-50.764;2022-12-29T10:46:32;100570.25;;;29.39
65600;BMP280;52272;-29.642;-50.764;2022-12-29T10:49:36;100577.78;;;29.48
65600;BMP280;52272;-29.642;-50.764;2022-12-29T10:52:14;100581.06;;;30.18
65600;BMP280;52272;-29.642;-50.764;2022-12-29T10:55:17;100591.34;;;30.56
65600;BMP280;52272;-29.642;-50.764;2022-12-29T10:58:01;100596.28;;;30.19
65600;BMP280;52272;-29.642;-50.764;2022-12-29T11:06:53;100590.78;;;30.86
65600;BMP280;52272;-29.642;-50.764;2022-12-29T11:09:28;100600.94;;;30.74
65600;BMP280;52272;-29.642;-50.764;2022-12-29T11:12:30;100611.63;;;30.32
65600;BMP280;52272;-29.642;-50.764;2022-12-29T11:15:14;100590.31;;;30.13
65600;BMP280;52272;-29.642;-50.764;2022-12-29T11:17:47;100607.09;;;30.08
65600;BMP280;52272;-29.642;-50.764;2022-12-29T11:20:31;100614.94;;;29.85
65600;BMP280;52272;-29.642;-50.764;2022-12-29T11:23:09;100612.50;;;29.53
65600;BMP280;52272;-29.642;-50.764;2022-12-29T11:26:37;100614.66;;;29.28
65600;BMP280;52272;-29.642;-50.764;2022-12-29T11:29:38;100614.88;;;29.14
65600;BMP280;52272;-29.642;-50.764;2022-12-29T11:32:22;100621.28;;;29.25
65600;BMP280;52272;-29.642;-50.764;2022-12-29T11:35:04;100615.59;;;29.40
65600;BMP280;52272;-29.642;-50.764;2022-12-29T11:37:45;100629.00;;;28.93
65600;BMP280;52272;-29.642;-50.764;2022-12-29T11:40:32;100632.13;;;29.07
65600;BMP280;52272;-29.642;-50.764;2022-12-29T11:43:34;100626.06;;;29.51
65600;BMP280;52272;-29.642;-50.764;2022-12-29T11:46:25;100639.41;;;29.91
65600;BMP280;52272;-29.642;-50.764;2022-12-29T11:48:59;100636.75;;;29.74
65600;BMP280;52272;-29.642;-50.764;2022-12-29T11:51:43;100639.06;;;29.77
65600;BMP280;52272;-29.642;-50.764;2022-12-29T11:54:38;100647.81;;;29.66
65600;BMP280;52272;-29.642;-50.764;2022-12-29T11:57:16;100655.47;;;30.39
65600;BMP280;52272;-29.642;-50.764;2022-12-29T11:59:57;100660.84;;;30.47
65600;BMP280;52272;-29.642;-50.764;2022-12-29T12:05:30;100664.44;;;30.59
65600;BMP280;52272;-29.642;-50.764;2022-12-29T12:11:10;100664.47;;;30.96
65600;BMP280;52272;-29.642;-50.764;2022-12-29T12:14:21;100679.50;;;31.52
65600;BMP280;52272;-29.642;-50.764;2022-12-29T12:17:19;100668.88;;;32.19
65600;BMP280;52272;-29.642;-50.764;2022-12-29T12:20:26;100668.56;;;32.24
65600;BMP280;52272;-29.642;-50.764;2022-12-29T12:23:25;100676.00;;;32.43
65600;BMP280;52272;-29.642;-50.764;2022-12-29T12:26:24;100675.84;;;33.26
65600;BMP280;52272;-29.642;-50.764;2022-12-29T12:29:20;100676.28;;;33.11
65600;BMP280;52272;-29.642;-50.764;2022-12-29T12:32:11;100678.97;;;32.88
65600;BMP280;52272;-29.642;-50.764;2022-12-29T12:34:50;100688.59;;;32.99
65600;BMP280;52272;-29.642;-50.764;2022-12-29T12:37:32;100679.69;;;33.78
65600;BMP280;52272;-29.642;-50.764;2022-12-29T12:49:33;100705.69;;;32.86
65600;BMP280;52272;-29.642;-50.764;2022-12-29T12:58:28;100697.41;;;32.23
65600;BMP280;52272;-29.642;-50.764;2022-12-29T13:01:32;100681.13;;;33.45
65600;BMP280;52272;-29.642;-50.764;2022-12-29T13:05:12;100698.69;;;33.49
65600;BMP280;52272;-29.642;-50.764;2022-12-29T13:13:39;100711.97;;;33.30
65600;BMP280;52272;-29.642;-50.764;2022-12-29T13:25:30;100722.56;;;34.73
65600;BMP280;52272;-29.642;-50.764;2022-12-29T13:36:55;100738.38;;;37.13
65600;BMP280;52272;-29.642;-50.764;2022-12-29T13:39:35;100736.91;;;34.94
65600;BMP280;52272;-29.642;-50.764;2022-12-29T13:42:11;100733.69;;;34.50
65600;BMP280;52272;-29.642;-50.764;2022-12-29T13:50:30;100738.28;;;34.45
65600;BMP280;52272;-29.642;-50.764;2022-12-29T13:56:19;100735.03;;;36.02
65600;BMP280;52272;-29.642;-50.764;2022-12-29T13:58:58;100732.53;;;36.21
65600;BMP280;52272;-29.642;-50.764;2022-12-29T14:01:41;100731.13;;;35.53
65600;BMP280;52272;-29.642;-50.764;2022-12-29T14:04:29;100717.19;;;34.88
65600;BMP280;52272;-29.642;-50.764;2022-12-29T14:07:14;100725.56;;;35.01
65600;BMP280;52272;-29.642;-50.764;2022-12-29T14:09:55;100728.06;;;35.74
65600;BMP280;52272;-29.642;-50.764;2022-12-29T14:12:42;100711.41;;;35.09
65600;BMP280;52272;-29.642;-50.764;2022-12-29T14:15:23;100713.38;;;33.86
65600;BMP280;52272;-29.642;-50.764;2022-12-29T14:18:10;100706.00;;;33.56
65600;BMP280;52272;-29.642;-50.764;2022-12-29T14:20:54;100707.47;;;34.51
65600;BMP280;52272;-29.642;-50.764;2022-12-29T14:23:41;100712.69;;;34.70
65600;BMP280;52272;-29.642;-50.764;2022-12-29T14:26:36;100709.44;;;34.37
65600;BMP280;52272;-29.642;-50.764;2022-12-29T14:35:38;100729.44;;;34.24
65600;BMP280;52272;-29.642;-50.764;2022-12-29T14:38:32;100716.81;;;35.32
65600;BMP280;52272;-29.642;-50.764;2022-12-29T14:41:26;100720.50;;;35.50
65600;BMP280;52272;-29.642;-50.764;2022-12-29T14:44:01;100716.81;;;36.12
65600;BMP280;52272;-29.642;-50.764;2022-12-29T14:47:11;100708.41;;;37.43
65600;BMP280;52272;-29.642;-50.764;2022-12-29T14:49:55;100720.25;;;37.28
65600;BMP280;52272;-29.642;-50.764;2022-12-29T14:52:28;100718.19;;;35.58
65600;BMP280;52272;-29.642;-50.764;2022-12-29T14:58:19;100703.59;;;33.51
65600;BMP280;52272;-29.642;-50.764;2022-12-29T15:00:51;100710.41;;;32.62
65600;BMP280;52272;-29.642;-50.764;2022-12-29T15:03:49;100712.03;;;33.64
65600;BMP280;52272;-29.642;-50.764;2022-12-29T15:06:30;100703.47;;;33.72
65600;BMP280;52272;-29.642;-50.764;2022-12-29T15:14:57;100704.13;;;33.59
65600;BMP280;52272;-29.642;-50.764;2022-12-29T15:17:45;100705.63;;;34.19
65600;BMP280;52272;-29.642;-50.764;2022-12-29T15:20:26;100699.38;;;33.50
65600;BMP280;52272;-29.642;-50.764;2022-12-29T15:23:14;100695.63;;;33.11
65600;BMP280;52272;-29.642;-50.764;2022-12-29T15:25:56;100700.41;;;33.66
65600;BMP280;52272;-29.642;-50.764;2022-12-29T15:28:43;100697.94;;;34.17
65600;BMP280;52272;-29.642;-50.764;2022-12-29T15:31:20;100705.22;;;34.72
65600;BMP280;52272;-29.642;-50.764;2022-12-29T15:34:09;100716.09;;;35.45
65600;BMP280;52272;-29.642;-50.764;2022-12-29T15:36:41;100713.28;;;35.04
65600;BMP280;52272;-29.642;-50.764;2022-12-29T15:39:29;100717.31;;;34.90
65600;BMP280;52272;-29.642;-50.764;2022-12-29T15:45:18;100718.31;;;34.35
65600;BMP280;52272;-29.642;-50.764;2022-12-29T15:47:56;100723.25;;;34.37
65600;BMP280;52272;-29.642;-50.764;2022-12-29T15:50:36;100724.75;;;34.63
65600;BMP280;52272;-29.642;-50.764;2022-12-29T15:53:12;100721.41;;;35.14
65600;BMP280;52272;-29.642;-50.764;2022-12-29T15:56:12;100725.50;;;33.93
65600;BMP280;52272;-29.642;-50.764;2022-12-29T15:58:46;100712.34;;;34.27
65600;BMP280;52272;-29.642;-50.764;2022-12-29T16:01:34;100718.72;;;34.18
65600;BMP280;52272;-29.642;-50.764;2022-12-29T16:04:11;100724.84;;;35.66
65600;BMP280;52272;-29.642;-50.764;2022-12-29T16:07:27;100720.75;;;35.94
65600;BMP280;52272;-29.642;-50.764;2022-12-29T16:10:28;100725.34;;;36.16
65600;BMP280;52272;-29.642;-50.764;2022-12-29T16:16:02;100719.91;;;37.83
65600;BMP280;52272;-29.642;-50.764;2022-12-29T16:18:40;100724.03;;;37.98
65600;BMP280;52272;-29.642;-50.764;2022-12-29T16:21:36;100714.81;;;38.11
65600;BMP280;52272;-29.642;-50.764;2022-12-29T16:24:31;100721.09;;;38.63
65600;BMP280;52272;-29.642;-50.764;2022-12-29T16:27:43;100728.81;;;38.47
65600;BMP280;52272;-29.642;-50.764;2022-12-29T16:30:32;100725.75;;;39.32
65600;BMP280;52272;-29.642;-50.764;2022-12-29T16:33:47;100720.59;;;39.25
65600;BMP280;52272;-29.642;-50.764;2022-12-29T16:36:30;100710.91;;;38.52
65600;BMP280;52272;-29.642;-50.764;2022-12-29T16:41:50;100718.66;;;36.63
65600;BMP280;52272;-29.642;-50.764;2022-12-29T16:44:28;100722.91;;;36.09
65600;BMP280;52272;-29.642;-50.764;2022-12-29T16:50:12;100714.69;;;35.44
65600;BMP280;52272;-29.642;-50.764;2022-12-29T16:52:54;100720.81;;;35.29
65600;BMP280;52272;-29.642;-50.764;2022-12-29T16:55:27;100713.75;;;35.01
65600;BMP280;52272;-29.642;-50.764;2022-12-29T16:58:02;100702.19;;;33.06
65600;BMP280;52272;-29.642;-50.764;2022-12-29T17:00:40;100696.47;;;34.16
65600;BMP280;52272;-29.642;-50.764;2022-12-29T17:03:12;100718.41;;;35.61
65600;BMP280;52272;-29.642;-50.764;2022-12-29T17:05:43;100719.81;;;36.30
65600;BMP280;52272;-29.642;-50.764;2022-12-29T17:08:18;100709.44;;;36.03
65600;BMP280;52272;-29.642;-50.764;2022-12-29T17:11:00;100712.69;;;36.69
65600;BMP280;52272;-29.642;-50.764;2022-12-29T17:13:57;100716.31;;;36.87
65600;BMP280;52272;-29.642;-50.764;2022-12-29T17:16:36;100716.31;;;37.33